Delta Virtual Airport Information Service

Fort Lauderdale Hollywood International Airport

ICAO: KFLL Country: United States
Latitude: 26.0726 Longitude: -80.1527
Latest Arrival : AAY1705 (2) (KJQF-KFLL) Latest Departure : DAC1320 (KFLL-KPIT)


WX CaptureLIVE
Data provided by noaa.gov | Fetched at 10:25:25

METAR : KFLL 151453Z 26011KT 10SM FEW025 FEW250 30/25 A3003 RMK AO2 SLP170 T03000250 50005

TAF : KFLL 151446Z 1515/1618 21010KT P6SM SCT025 SCT150 FM151700 22011KT P6SM VCTS SCT025CB BKN050 TEMPO 1518/1521 4SM TSRA BKN025CB FM160100 VRB04KT P6SM VCSH SCT035 BKN200 PROB30 1615/1618 5SM TSRA BKN025CB


Runway Data for KFLL
Data provided by openaviationdata.com

Runway ID Mag Var Hdg Length Elevation Surface ILS Freq ILS Id ILS Slope
09L -5 95° 8994 ft 9 ft Asphalt 110.1 ILHI 3
09R -5 95° 5272 ft 9 ft Asphalt 108.5 IFLL 0
13 -5 140° 6938 ft 9 ft Asphalt 109.35 ILID 0
27L -5 275° 5272 ft 9 ft Asphalt -- -- --
27R -5 275° 8994 ft 9 ft Asphalt 110.7 IUDL 3
31 -5 320° 6938 ft 9 ft Asphalt -- -- --

Fort Lauderdale Hollywood International Airport, United States
Use only for reference purposes



Not for navigational purposes.